sensor_id;sensor_type;location;lat;lon;timestamp;temperature;humidity
76120;DHT22;64852;48.092;-1.640;2022-12-10T00:01:28;4.30;99.90
76120;DHT22;64852;48.092;-1.640;2022-12-10T00:03:54;4.40;99.90
76120;DHT22;64852;48.092;-1.640;2022-12-10T00:06:25;4.30;99.90
76120;DHT22;64852;48.092;-1.640;2022-12-10T00:08:51;3.70;99.90
76120;DHT22;64852;48.092;-1.640;2022-12-10T00:11:18;4.00;99.90
76120;DHT22;64852;48.092;-1.640;2022-12-10T00:13:45;3.70;99.90
76120;DHT22;64852;48.092;-1.640;2022-12-10T00:16:12;3.70;99.90
76120;DHT22;64852;48.092;-1.640;2022-12-10T00:18:38;3.70;99.90
76120;DHT22;64852;48.092;-1.640;2022-12-10T00:21:06;4.00;99.90
76120;DHT22;64852;48.092;-1.640;2022-12-10T00:23:32;4.20;99.90
76120;DHT22;64852;48.092;-1.640;2022-12-10T00:26:02;3.80;99.90
76120;DHT22;64852;48.092;-1.640;2022-12-10T00:28:28;3.70;99.90
76120;DHT22;64852;48.092;-1.640;2022-12-10T00:30:53;4.10;99.90
76120;DHT22;64852;48.092;-1.640;2022-12-10T00:33:19;4.00;99.90
76120;DHT22;64852;48.092;-1.640;2022-12-10T00:35:45;3.70;99.90
76120;DHT22;64852;48.092;-1.640;2022-12-10T00:38:10;4.00;99.90
76120;DHT22;64852;48.092;-1.640;2022-12-10T00:40:36;3.90;99.90
76120;DHT22;64852;48.092;-1.640;2022-12-10T00:43:02;4.40;99.90
76120;DHT22;64852;48.092;-1.640;2022-12-10T00:45:28;3.70;99.90
76120;DHT22;64852;48.092;-1.640;2022-12-10T00:47:53;3.80;99.90
76120;DHT22;64852;48.092;-1.640;2022-12-10T00:50:19;3.50;99.90
76120;DHT22;64852;48.092;-1.640;2022-12-10T00:52:44;3.40;99.90
76120;DHT22;64852;48.092;-1.640;2022-12-10T00:55:10;4.40;99.90
76120;DHT22;64852;48.092;-1.640;2022-12-10T00:57:36;4.50;99.90
76120;DHT22;64852;48.092;-1.640;2022-12-10T01:00:02;3.50;99.90
76120;DHT22;64852;48.092;-1.640;2022-12-10T01:02:28;3.40;99.90
76120;DHT22;64852;48.092;-1.640;2022-12-10T01:04:54;3.40;99.90
76120;DHT22;64852;48.092;-1.640;2022-12-10T01:07:19;3.30;99.90
76120;DHT22;64852;48.092;-1.640;2022-12-10T01:09:45;3.40;99.90
76120;DHT22;64852;48.092;-1.640;2022-12-10T01:12:10;3.30;99.90
76120;DHT22;64852;48.092;-1.640;2022-12-10T01:14:36;3.90;99.90
76120;DHT22;64852;48.092;-1.640;2022-12-10T01:17:04;3.50;99.90
76120;DHT22;64852;48.092;-1.640;2022-12-10T01:19:31;4.40;99.90
76120;DHT22;64852;48.092;-1.640;2022-12-10T01:21:58;3.40;99.90
76120;DHT22;64852;48.092;-1.640;2022-12-10T01:24:25;4.10;99.90
76120;DHT22;64852;48.092;-1.640;2022-12-10T01:26:52;3.60;99.90
76120;DHT22;64852;48.092;-1.640;2022-12-10T01:29:18;3.40;99.90
76120;DHT22;64852;48.092;-1.640;2022-12-10T01:31:44;3.60;99.90
76120;DHT22;64852;48.092;-1.640;2022-12-10T01:34:12;3.40;99.90
76120;DHT22;64852;48.092;-1.640;2022-12-10T01:36:43;3.60;99.90
76120;DHT22;64852;48.092;-1.640;2022-12-10T01:39:13;3.30;99.90
76120;DHT22;64852;48.092;-1.640;2022-12-10T01:46:45;3.40;99.90
76120;DHT22;64852;48.092;-1.640;2022-12-10T01:49:17;3.30;99.90
76120;DHT22;64852;48.092;-1.640;2022-12-10T01:51:46;3.40;99.90
76120;DHT22;64852;48.092;-1.640;2022-12-10T01:54:21;3.60;99.90
76120;DHT22;64852;48.092;-1.640;2022-12-10T01:56:50;3.00;99.90
76120;DHT22;64852;48.092;-1.640;2022-12-10T01:59:17;3.20;99.90
76120;DHT22;64852;48.092;-1.640;2022-12-10T02:02:10;3.20;99.90
76120;DHT22;64852;48.092;-1.640;2022-12-10T02:10:09;3.10;99.90
76120;DHT22;64852;48.092;-1.640;2022-12-10T02:12:49;3.10;99.90
76120;DHT22;64852;48.092;-1.640;2022-12-10T02:15:25;3.00;99.90
76120;DHT22;64852;48.092;-1.640;2022-12-10T02:17:55;3.00;99.90
76120;DHT22;64852;48.092;-1.640;2022-12-10T02:23:13;2.80;99.90
76120;DHT22;64852;48.092;-1.640;2022-12-10T02:25:48;2.90;99.90
76120;DHT22;64852;48.092;-1.640;2022-12-10T02:30:50;2.90;99.90
76120;DHT22;64852;48.092;-1.640;2022-12-10T02:33:19;3.30;99.90
76120;DHT22;64852;48.092;-1.640;2022-12-10T02:35:47;3.30;99.90
76120;DHT22;64852;48.092;-1.640;2022-12-10T02:38:39;3.40;99.90
76120;DHT22;64852;48.092;-1.640;2022-12-10T02:41:28;2.80;99.90
76120;DHT22;64852;48.092;-1.640;2022-12-10T02:43:56;2.80;99.90
76120;DHT22;64852;48.092;-1.640;2022-12-10T02:46:24;2.80;99.90
76120;DHT22;64852;48.092;-1.640;2022-12-10T02:48:54;3.20;99.90
76120;DHT22;64852;48.092;-1.640;2022-12-10T02:51:20;2.90;99.90
76120;DHT22;64852;48.092;-1.640;2022-12-10T02:53:46;2.80;99.90
76120;DHT22;64852;48.092;-1.640;2022-12-10T02:56:29;2.70;99.90
76120;DHT22;64852;48.092;-1.640;2022-12-10T03:01:58;2.60;99.90
76120;DHT22;64852;48.092;-1.640;2022-12-10T03:07:16;2.70;99.90
76120;DHT22;64852;48.092;-1.640;2022-12-10T03:09:55;3.60;99.90
76120;DHT22;64852;48.092;-1.640;2022-12-10T03:12:27;2.60;99.90
76120;DHT22;64852;48.092;-1.640;2022-12-10T03:14:58;3.20;99.90
76120;DHT22;64852;48.092;-1.640;2022-12-10T03:17:27;3.00;99.90
76120;DHT22;64852;48.092;-1.640;2022-12-10T03:19:55;3.60;99.90
76120;DHT22;64852;48.092;-1.640;2022-12-10T03:22:22;3.40;99.90
76120;DHT22;64852;48.092;-1.640;2022-12-10T03:24:48;3.70;99.90
76120;DHT22;64852;48.092;-1.640;2022-12-10T03:27:15;3.00;99.90
76120;DHT22;64852;48.092;-1.640;2022-12-10T03:29:50;2.70;99.90
76120;DHT22;64852;48.092;-1.640;2022-12-10T03:32:18;2.70;99.90
76120;DHT22;64852;48.092;-1.640;2022-12-10T03:34:46;2.60;99.90
76120;DHT22;64852;48.092;-1.640;2022-12-10T03:37:13;2.50;99.90
76120;DHT22;64852;48.092;-1.640;2022-12-10T03:39:39;2.60;99.90
76120;DHT22;64852;48.092;-1.640;2022-12-10T03:42:06;2.50;99.90
76120;DHT22;64852;48.092;-1.640;2022-12-10T03:44:33;3.20;99.90
76120;DHT22;64852;48.092;-1.640;2022-12-10T03:47:00;2.40;99.90
76120;DHT22;64852;48.092;-1.640;2022-12-10T03:49:26;2.90;99.90
76120;DHT22;64852;48.092;-1.640;2022-12-10T03:51:51;2.30;99.90
76120;DHT22;64852;48.092;-1.640;2022-12-10T03:54:17;2.70;99.90
76120;DHT22;64852;48.092;-1.640;2022-12-10T03:56:43;3.00;99.90
76120;DHT22;64852;48.092;-1.640;2022-12-10T03:59:08;2.70;99.90
76120;DHT22;64852;48.092;-1.640;2022-12-10T04:01:34;2.40;99.90
76120;DHT22;64852;48.092;-1.640;2022-12-10T04:04:00;2.40;99.90
76120;DHT22;64852;48.092;-1.640;2022-12-10T04:06:25;2.50;99.90
76120;DHT22;64852;48.092;-1.640;2022-12-10T04:08:52;3.30;99.90
76120;DHT22;64852;48.092;-1.640;2022-12-10T04:11:18;2.40;99.90
76120;DHT22;64852;48.092;-1.640;2022-12-10T04:13:44;2.40;99.90
76120;DHT22;64852;48.092;-1.640;2022-12-10T04:16:30;2.90;99.90
76120;DHT22;64852;48.092;-1.640;2022-12-10T04:18:58;2.60;99.90
76120;DHT22;64852;48.092;-1.640;2022-12-10T04:21:25;3.50;99.90
76120;DHT22;64852;48.092;-1.640;2022-12-10T04:24:11;3.40;99.90
76120;DHT22;64852;48.092;-1.640;2022-12-10T04:26:57;2.90;99.90
76120;DHT22;64852;48.092;-1.640;2022-12-10T04:29:25;2.90;99.90
76120;DHT22;64852;48.092;-1.640;2022-12-10T04:31:52;3.00;99.90
76120;DHT22;64852;48.092;-1.640;2022-12-10T04:34:18;3.60;99.90
76120;DHT22;64852;48.092;-1.640;2022-12-10T04:36:44;2.50;99.90
76120;DHT22;64852;48.092;-1.640;2022-12-10T04:39:10;3.20;99.90
76120;DHT22;64852;48.092;-1.640;2022-12-10T04:41:40;2.80;99.90
76120;DHT22;64852;48.092;-1.640;2022-12-10T04:44:07;2.40;99.90
76120;DHT22;64852;48.092;-1.640;2022-12-10T04:46:32;3.10;99.90
76120;DHT22;64852;48.092;-1.640;2022-12-10T04:48:58;2.40;99.90
76120;DHT22;64852;48.092;-1.640;2022-12-10T04:51:24;2.30;99.90
76120;DHT22;64852;48.092;-1.640;2022-12-10T04:53:50;3.30;99.90
76120;DHT22;64852;48.092;-1.640;2022-12-10T04:56:15;2.50;99.90
76120;DHT22;64852;48.092;-1.640;2022-12-10T04:58:41;2.30;99.90
76120;DHT22;64852;48.092;-1.640;2022-12-10T05:01:08;2.90;99.90
76120;DHT22;64852;48.092;-1.640;2022-12-10T05:03:35;2.70;99.90
76120;DHT22;64852;48.092;-1.640;2022-12-10T05:06:05;2.60;99.90
76120;DHT22;64852;48.092;-1.640;2022-12-10T05:08:31;2.70;99.90
76120;DHT22;64852;48.092;-1.640;2022-12-10T05:11:06;3.00;99.90
76120;DHT22;64852;48.092;-1.640;2022-12-10T05:13:32;2.80;99.90
76120;DHT22;64852;48.092;-1.640;2022-12-10T05:16:00;2.80;99.90
76120;DHT22;64852;48.092;-1.640;2022-12-10T05:18:26;2.80;99.90
76120;DHT22;64852;48.092;-1.640;2022-12-10T05:20:52;2.80;99.90
76120;DHT22;64852;48.092;-1.640;2022-12-10T05:23:17;2.90;99.90
76120;DHT22;64852;48.092;-1.640;2022-12-10T05:26:05;2.80;99.90
76120;DHT22;64852;48.092;-1.640;2022-12-10T05:28:36;2.90;99.90
76120;DHT22;64852;48.092;-1.640;2022-12-10T05:31:02;3.50;99.90
76120;DHT22;64852;48.092;-1.640;2022-12-10T05:33:28;3.70;99.90
76120;DHT22;64852;48.092;-1.640;2022-12-10T05:35:58;3.50;99.90
76120;DHT22;64852;48.092;-1.640;2022-12-10T05:38:25;2.80;99.90
76120;DHT22;64852;48.092;-1.640;2022-12-10T05:40:51;3.00;99.90
76120;DHT22;64852;48.092;-1.640;2022-12-10T05:43:17;3.20;99.90
76120;DHT22;64852;48.092;-1.640;2022-12-10T05:45:42;3.00;99.90
76120;DHT22;64852;48.092;-1.640;2022-12-10T05:48:10;0.80;99.90
76120;DHT22;64852;48.092;-1.640;2022-12-10T05:50:36;2.90;99.90
76120;DHT22;64852;48.092;-1.640;2022-12-10T05:53:02;3.10;99.90
76120;DHT22;64852;48.092;-1.640;2022-12-10T05:55:28;3.30;99.90
76120;DHT22;64852;48.092;-1.640;2022-12-10T05:57:55;2.40;99.90
76120;DHT22;64852;48.092;-1.640;2022-12-10T06:00:20;2.60;99.90
76120;DHT22;64852;48.092;-1.640;2022-12-10T06:02:49;2.30;99.90
76120;DHT22;64852;48.092;-1.640;2022-12-10T06:05:15;2.30;99.90
76120;DHT22;64852;48.092;-1.640;2022-12-10T06:07:41;2.30;99.90
76120;DHT22;64852;48.092;-1.640;2022-12-10T06:10:06;3.10;99.90
76120;DHT22;64852;48.092;-1.640;2022-12-10T06:12:33;2.20;99.90
76120;DHT22;64852;48.092;-1.640;2022-12-10T06:14:59;3.00;99.90
76120;DHT22;64852;48.092;-1.640;2022-12-10T06:17:24;2.90;99.90
76120;DHT22;64852;48.092;-1.640;2022-12-10T06:19:50;2.00;99.90
76120;DHT22;64852;48.092;-1.640;2022-12-10T06:22:16;2.00;99.90
76120;DHT22;64852;48.092;-1.640;2022-12-10T06:24:41;2.00;99.90
76120;DHT22;64852;48.092;-1.640;2022-12-10T06:27:07;2.60;99.90
76120;DHT22;64852;48.092;-1.640;2022-12-10T06:29:33;2.60;99.90
76120;DHT22;64852;48.092;-1.640;2022-12-10T06:31:58;2.20;99.90
76120;DHT22;64852;48.092;-1.640;2022-12-10T06:34:24;2.80;99.90
76120;DHT22;64852;48.092;-1.640;2022-12-10T06:36:49;1.80;99.90
76120;DHT22;64852;48.092;-1.640;2022-12-10T06:39:15;1.80;99.90
76120;DHT22;64852;48.092;-1.640;2022-12-10T06:41:41;1.90;99.90
76120;DHT22;64852;48.092;-1.640;2022-12-10T06:44:10;1.90;99.90
76120;DHT22;64852;48.092;-1.640;2022-12-10T06:46:36;2.20;99.90
76120;DHT22;64852;48.092;-1.640;2022-12-10T06:49:03;2.40;99.90
76120;DHT22;64852;48.092;-1.640;2022-12-10T06:51:29;2.50;99.90
76120;DHT22;64852;48.092;-1.640;2022-12-10T06:53:55;2.70;99.90
76120;DHT22;64852;48.092;-1.640;2022-12-10T06:56:20;2.80;99.90
76120;DHT22;64852;48.092;-1.640;2022-12-10T06:58:47;2.80;99.90
76120;DHT22;64852;48.092;-1.640;2022-12-10T07:03:43;1.80;99.90
76120;DHT22;64852;48.092;-1.640;2022-12-10T07:06:10;1.90;99.90
76120;DHT22;64852;48.092;-1.640;2022-12-10T07:08:37;1.90;99.90
76120;DHT22;64852;48.092;-1.640;2022-12-10T07:11:16;2.00;99.90
76120;DHT22;64852;48.092;-1.640;2022-12-10T07:13:42;2.50;99.90
76120;DHT22;64852;48.092;-1.640;2022-12-10T07:16:19;2.40;99.90
76120;DHT22;64852;48.092;-1.640;2022-12-10T07:18:46;1.90;99.90
76120;DHT22;64852;48.092;-1.640;2022-12-10T07:21:20;2.00;99.90
76120;DHT22;64852;48.092;-1.640;2022-12-10T07:23:46;2.00;99.90
76120;DHT22;64852;48.092;-1.640;2022-12-10T07:26:12;2.60;99.90
76120;DHT22;64852;48.092;-1.640;2022-12-10T07:28:38;2.60;99.90
76120;DHT22;64852;48.092;-1.640;2022-12-10T07:31:05;2.20;99.90
76120;DHT22;64852;48.092;-1.640;2022-12-10T07:33:31;2.80;99.90
76120;DHT22;64852;48.092;-1.640;2022-12-10T07:35:57;2.30;99.90
76120;DHT22;64852;48.092;-1.640;2022-12-10T07:38:24;1.90;99.90
76120;DHT22;64852;48.092;-1.640;2022-12-10T07:40:50;2.80;99.90
76120;DHT22;64852;48.092;-1.640;2022-12-10T07:43:16;1.90;99.90
76120;DHT22;64852;48.092;-1.640;2022-12-10T07:45:41;1.80;99.90
76120;DHT22;64852;48.092;-1.640;2022-12-10T07:48:07;1.80;99.90
76120;DHT22;64852;48.092;-1.640;2022-12-10T07:50:33;2.50;99.90
76120;DHT22;64852;48.092;-1.640;2022-12-10T07:52:59;2.00;99.90
76120;DHT22;64852;48.092;-1.640;2022-12-10T07:55:25;2.50;99.90
76120;DHT22;64852;48.092;-1.640;2022-12-10T07:57:50;2.00;99.90
76120;DHT22;64852;48.092;-1.640;2022-12-10T08:00:16;2.60;99.90
76120;DHT22;64852;48.092;-1.640;2022-12-10T08:02:42;1.90;99.90
76120;DHT22;64852;48.092;-1.640;2022-12-10T08:05:08;1.80;99.90
76120;DHT22;64852;48.092;-1.640;2022-12-10T08:07:34;2.30;99.90
76120;DHT22;64852;48.092;-1.640;2022-12-10T08:10:00;1.80;99.90
76120;DHT22;64852;48.092;-1.640;2022-12-10T08:12:25;2.50;99.90
76120;DHT22;64852;48.092;-1.640;2022-12-10T08:14:51;1.80;99.90
76120;DHT22;64852;48.092;-1.640;2022-12-10T08:17:17;1.80;99.90
76120;DHT22;64852;48.092;-1.640;2022-12-10T08:19:42;2.20;99.90
76120;DHT22;64852;48.092;-1.640;2022-12-10T08:22:08;1.90;99.90
76120;DHT22;64852;48.092;-1.640;2022-12-10T08:24:33;2.80;99.90
76120;DHT22;64852;48.092;-1.640;2022-12-10T08:27:00;2.70;99.90
76120;DHT22;64852;48.092;-1.640;2022-12-10T08:29:26;2.00;99.90
76120;DHT22;64852;48.092;-1.640;2022-12-10T08:31:51;2.10;99.90
76120;DHT22;64852;48.092;-1.640;2022-12-10T08:34:18;2.70;99.90
76120;DHT22;64852;48.092;-1.640;2022-12-10T08:36:45;2.10;99.90
76120;DHT22;64852;48.092;-1.640;2022-12-10T08:39:11;2.10;99.90
76120;DHT22;64852;48.092;-1.640;2022-12-10T08:41:41;2.30;99.90
76120;DHT22;64852;48.092;-1.640;2022-12-10T08:44:07;2.70;99.90
76120;DHT22;64852;48.092;-1.640;2022-12-10T08:46:33;2.30;99.90
76120;DHT22;64852;48.092;-1.640;2022-12-10T08:48:59;2.30;99.90
76120;DHT22;64852;48.092;-1.640;2022-12-10T08:51:25;3.20;99.90
76120;DHT22;64852;48.092;-1.640;2022-12-10T08:53:51;3.30;99.90
76120;DHT22;64852;48.092;-1.640;2022-12-10T08:56:16;3.10;99.90
76120;DHT22;64852;48.092;-1.640;2022-12-10T08:58:42;2.40;99.90
76120;DHT22;64852;48.092;-1.640;2022-12-10T09:01:13;2.60;99.90
76120;DHT22;64852;48.092;-1.640;2022-12-10T09:03:39;2.50;99.90
76120;DHT22;64852;48.092;-1.640;2022-12-10T09:06:07;3.20;99.90
76120;DHT22;64852;48.092;-1.640;2022-12-10T09:08:33;2.70;99.90
76120;DHT22;64852;48.092;-1.640;2022-12-10T09:11:09;3.20;99.90
76120;DHT22;64852;48.092;-1.640;2022-12-10T09:13:35;2.90;99.90
76120;DHT22;64852;48.092;-1.640;2022-12-10T09:16:01;3.10;99.90
76120;DHT22;64852;48.092;-1.640;2022-12-10T09:18:27;3.20;99.90
76120;DHT22;64852;48.092;-1.640;2022-12-10T09:20:53;3.60;99.90
76120;DHT22;64852;48.092;-1.640;2022-12-10T09:23:18;3.20;99.90
76120;DHT22;64852;48.092;-1.640;2022-12-10T09:25:44;3.70;99.90
76120;DHT22;64852;48.092;-1.640;2022-12-10T09:28:09;4.30;99.90
76120;DHT22;64852;48.092;-1.640;2022-12-10T09:30:35;3.90;99.90
76120;DHT22;64852;48.092;-1.640;2022-12-10T09:33:01;4.50;99.90
76120;DHT22;64852;48.092;-1.640;2022-12-10T09:35:26;4.60;99.90
76120;DHT22;64852;48.092;-1.640;2022-12-10T09:37:53;3.60;99.90
76120;DHT22;64852;48.092;-1.640;2022-12-10T09:40:35;4.30;99.90
76120;DHT22;64852;48.092;-1.640;2022-12-10T09:43:19;3.70;99.90
76120;DHT22;64852;48.092;-1.640;2022-12-10T09:53:19;3.80;99.90
76120;DHT22;64852;48.092;-1.640;2022-12-10T09:55:47;3.80;99.90
76120;DHT22;64852;48.092;-1.640;2022-12-10T09:58:24;4.60;99.90
76120;DHT22;64852;48.092;-1.640;2022-12-10T10:03:23;4.10;99.90
76120;DHT22;64852;48.092;-1.640;2022-12-10T10:05:51;4.20;99.90
76120;DHT22;64852;48.092;-1.640;2022-12-10T10:08:31;4.40;99.90
76120;DHT22;64852;48.092;-1.640;2022-12-10T10:10:59;4.80;99.90
76120;DHT22;64852;48.092;-1.640;2022-12-10T10:16:39;4.70;99.90
76120;DHT22;64852;48.092;-1.640;2022-12-10T10:19:18;4.90;99.90
76120;DHT22;64852;48.092;-1.640;2022-12-10T10:21:48;5.10;99.90
76120;DHT22;64852;48.092;-1.640;2022-12-10T10:24:18;5.20;99.90
76120;DHT22;64852;48.092;-1.640;2022-12-10T10:26:44;5.30;99.90
76120;DHT22;64852;48.092;-1.640;2022-12-10T10:29:16;5.50;99.90
76120;DHT22;64852;48.092;-1.640;2022-12-10T10:31:44;5.60;99.90
76120;DHT22;64852;48.092;-1.640;2022-12-10T10:34:17;7.50;99.90
76120;DHT22;64852;48.092;-1.640;2022-12-10T10:36:43;5.80;99.90
76120;DHT22;64852;48.092;-1.640;2022-12-10T10:41:41;6.10;99.90
76120;DHT22;64852;48.092;-1.640;2022-12-10T10:44:18;6.10;99.90
76120;DHT22;64852;48.092;-1.640;2022-12-10T10:46:46;6.30;99.90
76120;DHT22;64852;48.092;-1.640;2022-12-10T10:52:16;6.50;99.90
76120;DHT22;64852;48.092;-1.640;2022-12-10T10:54:44;6.40;99.90
76120;DHT22;64852;48.092;-1.640;2022-12-10T10:57:29;6.60;99.90
76120;DHT22;64852;48.092;-1.640;2022-12-10T11:00:18;6.60;99.90
76120;DHT22;64852;48.092;-1.640;2022-12-10T11:02:45;6.70;99.90
76120;DHT22;64852;48.092;-1.640;2022-12-10T11:05:21;6.80;99.90
76120;DHT22;64852;48.092;-1.640;2022-12-10T11:08:00;6.90;99.90
76120;DHT22;64852;48.092;-1.640;2022-12-10T11:10:27;6.90;99.90
76120;DHT22;64852;48.092;-1.640;2022-12-10T11:13:25;7.00;99.90
76120;DHT22;64852;48.092;-1.640;2022-12-10T11:19:00;7.30;99.90
76120;DHT22;64852;48.092;-1.640;2022-12-10T11:21:32;7.40;99.90
76120;DHT22;64852;48.092;-1.640;2022-12-10T11:23:59;7.70;99.90
76120;DHT22;64852;48.092;-1.640;2022-12-10T11:26:47;7.70;99.90
76120;DHT22;64852;48.092;-1.640;2022-12-10T11:45:42;8.70;99.90
76120;DHT22;64852;48.092;-1.640;2022-12-10T11:56:49;9.20;99.90
76120;DHT22;64852;48.092;-1.640;2022-12-10T12:05:34;9.90;99.90
76120;DHT22;64852;48.092;-1.640;2022-12-10T12:16:30;10.80;99.90
76120;DHT22;64852;48.092;-1.640;2022-12-10T12:19:09;11.10;99.90
76120;DHT22;64852;48.092;-1.640;2022-12-10T12:21:38;11.20;99.90
76120;DHT22;64852;48.092;-1.640;2022-12-10T12:24:14;11.50;99.90
76120;DHT22;64852;48.092;-1.640;2022-12-10T12:26:51;11.70;99.90
76120;DHT22;64852;48.092;-1.640;2022-12-10T12:29:29;12.10;99.90
76120;DHT22;64852;48.092;-1.640;2022-12-10T12:32:04;12.10;99.90
76120;DHT22;64852;48.092;-1.640;2022-12-10T12:34:56;12.30;99.90
76120;DHT22;64852;48.092;-1.640;2022-12-10T12:37:29;12.70;99.90
76120;DHT22;64852;48.092;-1.640;2022-12-10T12:40:09;12.90;99.90
76120;DHT22;64852;48.092;-1.640;2022-12-10T12:42:49;13.10;99.90
76120;DHT22;64852;48.092;-1.640;2022-12-10T12:45:40;13.00;99.90
76120;DHT22;64852;48.092;-1.640;2022-12-10T12:48:11;12.70;99.90
76120;DHT22;64852;48.092;-1.640;2022-12-10T12:50:43;12.60;99.90
76120;DHT22;64852;48.092;-1.640;2022-12-10T12:53:20;12.60;99.90
76120;DHT22;64852;48.092;-1.640;2022-12-10T13:03:54;12.20;99.90
76120;DHT22;64852;48.092;-1.640;2022-12-10T13:08:53;12.10;99.90
76120;DHT22;64852;48.092;-1.640;2022-12-10T13:11:31;12.10;99.90
76120;DHT22;64852;48.092;-1.640;2022-12-10T13:16:45;12.00;99.90
76120;DHT22;64852;48.092;-1.640;2022-12-10T13:29:59;12.20;99.90
76120;DHT22;64852;48.092;-1.640;2022-12-10T13:49:00;11.40;99.90
76120;DHT22;64852;48.092;-1.640;2022-12-10T13:51:58;11.60;99.90
76120;DHT22;64852;48.092;-1.640;2022-12-10T13:57:06;11.30;99.20
76120;DHT22;64852;48.092;-1.640;2022-12-10T14:07:34;10.90;95.10
76120;DHT22;64852;48.092;-1.640;2022-12-10T14:10:00;10.90;90.30
76120;DHT22;64852;48.092;-1.640;2022-12-10T14:12:28;10.90;92.00
76120;DHT22;64852;48.092;-1.640;2022-12-10T14:15:04;11.00;92.40
76120;DHT22;64852;48.092;-1.640;2022-12-10T14:17:37;11.00;91.80
76120;DHT22;64852;48.092;-1.640;2022-12-10T14:20:06;11.10;91.50
76120;DHT22;64852;48.092;-1.640;2022-12-10T14:22:37;11.00;90.90
76120;DHT22;64852;48.092;-1.640;2022-12-10T14:25:09;11.00;92.10
76120;DHT22;64852;48.092;-1.640;2022-12-10T14:27:37;10.90;86.00
76120;DHT22;64852;48.092;-1.640;2022-12-10T14:30:21;10.60;87.70
76120;DHT22;64852;48.092;-1.640;2022-12-10T14:32:49;10.50;90.50
76120;DHT22;64852;48.092;-1.640;2022-12-10T14:35:20;10.40;91.30
76120;DHT22;64852;48.092;-1.640;2022-12-10T14:37:47;10.50;87.90
76120;DHT22;64852;48.092;-1.640;2022-12-10T14:40:38;10.40;84.70
76120;DHT22;64852;48.092;-1.640;2022-12-10T14:43:17;10.30;84.60
76120;DHT22;64852;48.092;-1.640;2022-12-10T14:48:16;10.20;86.80
76120;DHT22;64852;48.092;-1.640;2022-12-10T14:50:42;10.20;87.70
76120;DHT22;64852;48.092;-1.640;2022-12-10T14:53:17;10.10;86.20
76120;DHT22;64852;48.092;-1.640;2022-12-10T14:55:45;10.00;86.80
76120;DHT22;64852;48.092;-1.640;2022-12-10T14:58:19;10.00;89.80
76120;DHT22;64852;48.092;-1.640;2022-12-10T15:00:48;9.90;90.30
76120;DHT22;64852;48.092;-1.640;2022-12-10T15:03:27;10.10;88.40
76120;DHT22;64852;48.092;-1.640;2022-12-10T15:06:01;9.90;87.50
76120;DHT22;64852;48.092;-1.640;2022-12-10T15:08:28;9.90;86.20
76120;DHT22;64852;48.092;-1.640;2022-12-10T15:10:55;9.70;86.00
76120;DHT22;64852;48.092;-1.640;2022-12-10T15:15:51;9.60;87.30
76120;DHT22;64852;48.092;-1.640;2022-12-10T15:18:21;9.60;86.40
76120;DHT22;64852;48.092;-1.640;2022-12-10T15:20:52;9.50;86.00
76120;DHT22;64852;48.092;-1.640;2022-12-10T15:23:31;9.60;87.60
76120;DHT22;64852;48.092;-1.640;2022-12-10T15:28:35;9.40;88.80
76120;DHT22;64852;48.092;-1.640;2022-12-10T15:34:10;9.40;87.70
76120;DHT22;64852;48.092;-1.640;2022-12-10T15:36:43;9.30;87.00
76120;DHT22;64852;48.092;-1.640;2022-12-10T15:41:47;9.30;89.30
76120;DHT22;64852;48.092;-1.640;2022-12-10T15:44:34;9.20;89.30
76120;DHT22;64852;48.092;-1.640;2022-12-10T15:49:30;9.00;88.30
76120;DHT22;64852;48.092;-1.640;2022-12-10T15:51:56;9.10;89.20
76120;DHT22;64852;48.092;-1.640;2022-12-10T15:54:25;9.10;88.80
76120;DHT22;64852;48.092;-1.640;2022-12-10T15:56:52;9.10;89.00
76120;DHT22;64852;48.092;-1.640;2022-12-10T15:59:17;9.00;89.50
76120;DHT22;64852;48.092;-1.640;2022-12-10T16:01:44;8.90;89.40
76120;DHT22;64852;48.092;-1.640;2022-12-10T16:04:10;8.90;89.00
76120;DHT22;64852;48.092;-1.640;2022-12-10T16:06:35;8.90;89.20
76120;DHT22;64852;48.092;-1.640;2022-12-10T16:09:01;8.90;88.40
76120;DHT22;64852;48.092;-1.640;2022-12-10T16:11:27;8.80;87.10
76120;DHT22;64852;48.092;-1.640;2022-12-10T16:13:55;8.80;88.20
76120;DHT22;64852;48.092;-1.640;2022-12-10T16:16:23;8.80;88.90
76120;DHT22;64852;48.092;-1.640;2022-12-10T16:18:49;8.70;88.50
76120;DHT22;64852;48.092;-1.640;2022-12-10T16:21:15;8.70;89.50
76120;DHT22;64852;48.092;-1.640;2022-12-10T16:23:41;8.70;90.00
76120;DHT22;64852;48.092;-1.640;2022-12-10T16:28:42;8.50;89.00
76120;DHT22;64852;48.092;-1.640;2022-12-10T16:31:12;8.50;89.90
76120;DHT22;64852;48.092;-1.640;2022-12-10T16:33:38;8.40;90.20
76120;DHT22;64852;48.092;-1.640;2022-12-10T16:36:04;8.40;90.40
76120;DHT22;64852;48.092;-1.640;2022-12-10T16:38:30;8.30;90.60
76120;DHT22;64852;48.092;-1.640;2022-12-10T16:40:56;8.40;90.80
76120;DHT22;64852;48.092;-1.640;2022-12-10T16:43:26;8.30;90.90
76120;DHT22;64852;48.092;-1.640;2022-12-10T16:45:56;8.30;91.00
76120;DHT22;64852;48.092;-1.640;2022-12-10T16:48:22;8.20;90.80
76120;DHT22;64852;48.092;-1.640;2022-12-10T16:50:50;8.20;90.80
76120;DHT22;64852;48.092;-1.640;2022-12-10T16:53:19;8.10;90.70
76120;DHT22;64852;48.092;-1.640;2022-12-10T16:55:45;8.00;90.50
76120;DHT22;64852;48.092;-1.640;2022-12-10T16:58:13;8.00;90.80
76120;DHT22;64852;48.092;-1.640;2022-12-10T17:00:44;7.80;90.80
76120;DHT22;64852;48.092;-1.640;2022-12-10T17:03:11;7.80;90.90
76120;DHT22;64852;48.092;-1.640;2022-12-10T17:08:19;7.50;90.60
76120;DHT22;64852;48.092;-1.640;2022-12-10T17:10:46;7.50;91.20
76120;DHT22;64852;48.092;-1.640;2022-12-10T17:13:31;7.60;91.40
76120;DHT22;64852;48.092;-1.640;2022-12-10T17:15:58;7.40;91.50
76120;DHT22;64852;48.092;-1.640;2022-12-10T17:18:23;7.20;91.40
76120;DHT22;64852;48.092;-1.640;2022-12-10T17:20:49;7.20;91.50
76120;DHT22;64852;48.092;-1.640;2022-12-10T17:23:15;7.20;91.60
76120;DHT22;64852;48.092;-1.640;2022-12-10T17:25:41;7.20;91.60
76120;DHT22;64852;48.092;-1.640;2022-12-10T17:28:19;7.10;91.70
76120;DHT22;64852;48.092;-1.640;2022-12-10T17:30:45;7.00;92.10
76120;DHT22;64852;48.092;-1.640;2022-12-10T17:33:21;7.20;92.70
76120;DHT22;64852;48.092;-1.640;2022-12-10T17:35:48;6.90;92.60
76120;DHT22;64852;48.092;-1.640;2022-12-10T17:38:17;6.80;92.70
76120;DHT22;64852;48.092;-1.640;2022-12-10T17:40:43;6.70;92.60
76120;DHT22;64852;48.092;-1.640;2022-12-10T17:43:10;6.80;93.00
76120;DHT22;64852;48.092;-1.640;2022-12-10T17:45:36;6.70;93.40
76120;DHT22;64852;48.092;-1.640;2022-12-10T17:48:03;6.70;93.80
76120;DHT22;64852;48.092;-1.640;2022-12-10T17:50:32;6.60;94.10
76120;DHT22;64852;48.092;-1.640;2022-12-10T17:52:59;6.70;94.50
76120;DHT22;64852;48.092;-1.640;2022-12-10T17:55:26;6.70;94.60
76120;DHT22;64852;48.092;-1.640;2022-12-10T17:57:52;6.50;94.90
76120;DHT22;64852;48.092;-1.640;2022-12-10T18:00:20;6.50;95.00
76120;DHT22;64852;48.092;-1.640;2022-12-10T18:02:46;6.60;95.20
76120;DHT22;64852;48.092;-1.640;2022-12-10T18:05:12;6.50;95.60
76120;DHT22;64852;48.092;-1.640;2022-12-10T18:07:38;6.40;95.70
76120;DHT22;64852;48.092;-1.640;2022-12-10T18:10:09;6.40;95.50
76120;DHT22;64852;48.092;-1.640;2022-12-10T18:12:37;6.40;95.70
76120;DHT22;64852;48.092;-1.640;2022-12-10T18:15:03;6.40;95.90
76120;DHT22;64852;48.092;-1.640;2022-12-10T18:17:29;6.40;96.30
76120;DHT22;64852;48.092;-1.640;2022-12-10T18:19:55;7.10;96.80